Time,TemperatureF,DewpointF,PressureIn,WindDirection,WindDirectionDegrees,WindSpeedMPH,WindSpeedGustMPH,Humidity,HourlyPrecipIn,Conditions,Clouds,dailyrainin,SoftwareType,DateUTC
2013-02-14 00:11:00,39.6,31.0,29.81,WNW,300,3.0,4.0,70,0.00,,,0.00,weatherlink.com 1.10,2013-02-14 06:11:00,
2013-02-14 00:26:00,39.2,31.0,29.81,NW,311,4.0,6.0,72,0.00,,,0.00,weatherlink.com 1.10,2013-02-14 06:26:00,
2013-02-14 00:41:00,39.4,31.0,29.82,WNW,284,3.0,6.0,72,0.00,,,0.00,weatherlink.com 1.10,2013-02-14 06:41:00,
2013-02-14 00:56:00,39.5,31.0,29.82,WNW,297,1.0,7.0,72,0.00,,,0.00,weatherlink.com 1.10,2013-02-14 06:56:00,
2013-02-14 01:11:00,40.1,31.0,29.82,NW,325,2.0,7.0,71,0.00,,,0.00,weatherlink.com 1.10,2013-02-14 07:11:00,
2013-02-14 01:26:00,40.1,31.0,29.83,WNW,302,3.0,8.0,71,0.00,,,0.00,weatherlink.com 1.10,2013-02-14 07:26:00,
2013-02-14 01:41:00,41.1,32.0,29.83,WNW,283,2.0,9.0,70,0.00,,,0.00,weatherlink.com 1.10,2013-02-14 07:41:00,
2013-02-14 01:56:00,41.0,32.0,29.84,NW,305,6.0,10.0,70,0.00,,,0.00,weatherlink.com 1.10,2013-02-14 07:56:00,
2013-02-14 02:11:00,40.7,32.0,29.84,WNW,302,5.0,9.0,70,0.00,,,0.00,weatherlink.com 1.10,2013-02-14 08:11:00,
2013-02-14 02:26:00,40.6,32.0,29.85,WNW,284,7.0,15.0,71,0.00,,,0.00,weatherlink.com 1.10,2013-02-14 08:26:00,
2013-02-14 02:41:00,40.9,32.0,29.86,NW,305,5.0,14.0,70,0.00,,,0.00,weatherlink.com 1.10,2013-02-14 08:41:00,
2013-02-14 02:57:00,40.6,32.0,29.86,WNW,300,9.0,13.0,71,0.00,,,0.00,weatherlink.com 1.10,2013-02-14 08:57:00,
2013-02-14 03:12:00,40.2,31.0,29.86,NNW,330,5.0,13.0,71,0.00,,,0.00,weatherlink.com 1.10,2013-02-14 09:12:00,
2013-02-14 03:26:00,40.0,32.0,29.86,WNW,299,11.0,15.0,72,0.00,,,0.00,weatherlink.com 1.10,2013-02-14 09:26:00,
2013-02-14 03:42:00,39.1,31.0,29.86,WNW,284,3.0,13.0,73,0.00,,,0.00,weatherlink.com 1.10,2013-02-14 09:42:00,
2013-02-14 03:57:00,38.1,31.0,29.86,WNW,290,4.0,7.0,75,0.00,,,0.00,weatherlink.com 1.10,2013-02-14 09:57:00,
2013-02-14 04:12:00,37.0,30.0,29.87,NW,316,4.0,7.0,77,0.00,,,0.00,weatherlink.com 1.10,2013-02-14 10:12:00,
2013-02-14 04:27:00,36.7,30.0,29.88,West,281,2.0,8.0,78,0.00,,,0.00,weatherlink.com 1.10,2013-02-14 10:27:00,
2013-02-14 04:42:00,37.0,31.0,29.88,NW,314,2.0,9.0,79,0.00,,,0.00,weatherlink.com 1.10,2013-02-14 10:42:00,
2013-02-14 04:57:00,37.2,31.0,29.89,WNW,287,3.0,10.0,78,0.00,,,0.00,weatherlink.com 1.10,2013-02-14 10:57:00,
2013-02-14 05:12:00,36.8,31.0,29.89,WNW,293,6.0,8.0,79,0.00,,,0.00,weatherlink.com 1.10,2013-02-14 11:12:00,
2013-02-14 05:27:00,36.4,31.0,29.90,NW,314,6.0,11.0,80,0.00,,,0.00,weatherlink.com 1.10,2013-02-14 11:27:00,
2013-02-14 05:42:00,36.1,31.0,29.91,NNW,346,3.0,11.0,80,0.00,,,0.00,weatherlink.com 1.10,2013-02-14 11:42:00,
2013-02-14 05:57:00,35.7,30.0,29.92,WNW,292,4.0,8.0,81,0.00,,,0.00,weatherlink.com 1.10,2013-02-14 11:57:00,
2013-02-14 06:12:00,35.5,31.0,29.92,WNW,295,8.0,13.0,82,0.00,,,0.00,weatherlink.com 1.10,2013-02-14 12:12:00,
2013-02-14 06:27:00,35.2,30.0,29.93,West,271,5.0,9.0,81,0.00,,,0.00,weatherlink.com 1.10,2013-02-14 12:27:00,
2013-02-14 06:42:00,34.7,30.0,29.94,WNW,284,4.0,10.0,82,0.00,,,0.00,weatherlink.com 1.10,2013-02-14 12:42:00,
2013-02-14 06:57:00,34.2,30.0,29.95,WNW,287,6.0,8.0,83,0.00,,,0.00,weatherlink.com 1.10,2013-02-14 12:57:00,
2013-02-14 07:12:00,34.3,30.0,29.95,NNW,339,2.0,9.0,83,0.00,,,0.00,weatherlink.com 1.10,2013-02-14 13:12:00,
2013-02-14 07:42:00,34.1,30.0,29.96,West,264,2.0,6.0,84,0.00,,,0.00,weatherlink.com 1.10,2013-02-14 13:42:00,
2013-02-14 07:57:00,33.9,30.0,29.96,WNW,287,1.0,4.0,85,0.00,,,0.00,weatherlink.com 1.10,2013-02-14 13:57:00,
2013-02-14 08:12:00,34.3,30.0,29.96,WNW,291,2.0,5.0,85,0.00,,,0.00,weatherlink.com 1.10,2013-02-14 14:12:00,
2013-02-14 08:27:00,34.8,30.0,29.97,NW,305,2.0,4.0,84,0.00,,,0.00,weatherlink.com 1.10,2013-02-14 14:27:00,
2013-02-14 08:43:00,35.7,31.0,29.97,WNW,284,2.0,5.0,83,0.00,,,0.00,weatherlink.com 1.10,2013-02-14 14:43:00,
2013-02-14 08:58:00,36.3,31.0,29.98,WSW,252,0.0,5.0,82,0.00,,,0.00,weatherlink.com 1.10,2013-02-14 14:58:00,
2013-02-14 09:13:00,36.9,31.0,29.98,NW,305,2.0,7.0,80,0.00,,,0.00,weatherlink.com 1.10,2013-02-14 15:13:00,
2013-02-14 09:27:00,37.5,32.0,29.98,WNW,287,1.0,7.0,80,0.00,,,0.00,weatherlink.com 1.10,2013-02-14 15:27:00,
2013-02-14 09:43:00,37.6,32.0,29.99,WNW,295,1.0,7.0,79,0.00,,,0.00,weatherlink.com 1.10,2013-02-14 15:43:00,
2013-02-14 09:59:00,38.1,32.0,29.99,WNW,302,3.0,10.0,78,0.00,,,0.00,weatherlink.com 1.10,2013-02-14 15:59:00,
2013-02-14 10:13:00,38.7,32.0,29.99,West,262,2.0,10.0,78,0.00,,,0.00,weatherlink.com 1.10,2013-02-14 16:13:00,
2013-02-14 10:28:00,39.2,33.0,29.99,WNW,295,5.0,11.0,77,0.00,,,0.00,weatherlink.com 1.10,2013-02-14 16:28:00,
2013-02-14 10:43:00,40.2,33.0,30.00,NW,319,9.0,11.0,74,0.00,,,0.00,weatherlink.com 1.10,2013-02-14 16:43:00,
2013-02-14 10:58:00,40.6,32.0,30.00,West,259,8.0,14.0,70,0.00,,,0.00,weatherlink.com 1.10,2013-02-14 16:58:00,
2013-02-14 11:13:00,41.5,31.0,30.00,NW,325,8.0,14.0,67,0.00,,,0.00,weatherlink.com 1.10,2013-02-14 17:13:00,
2013-02-14 11:28:00,42.3,30.0,30.00,WNW,290,6.0,14.0,62,0.00,,,0.00,weatherlink.com 1.10,2013-02-14 17:28:00,
2013-02-14 11:43:00,41.8,30.0,30.00,WNW,292,5.0,17.0,63,0.00,,,0.00,weatherlink.com 1.10,2013-02-14 17:43:00,
2013-02-14 12:13:00,42.7,27.0,30.01,West,281,10.0,21.0,54,0.00,,,0.00,weatherlink.com 1.10,2013-02-14 18:13:00,
2013-02-14 12:28:00,43.5,26.0,30.01,NW,316,12.0,18.0,51,0.00,,,0.00,weatherlink.com 1.10,2013-02-14 18:28:00,
2013-02-14 12:43:00,44.1,25.0,30.01,NW,310,8.0,19.0,48,0.00,,,0.00,weatherlink.com 1.10,2013-02-14 18:43:00,
2013-02-14 12:58:00,44.3,26.0,30.00,West,260,11.0,20.0,48,0.00,,,0.00,weatherlink.com 1.10,2013-02-14 18:58:00,
2013-02-14 13:13:00,43.1,25.0,30.01,NNW,327,11.0,18.0,50,0.00,,,0.00,weatherlink.com 1.10,2013-02-14 19:13:00,
2013-02-14 13:28:00,43.1,26.0,30.02,West,276,16.0,16.0,52,0.00,,,0.00,weatherlink.com 1.10,2013-02-14 19:28:00,
2013-02-14 13:43:00,42.9,25.0,30.02,WNW,288,9.0,15.0,50,0.00,,,0.00,weatherlink.com 1.10,2013-02-14 19:43:00,
2013-02-14 13:58:00,43.1,25.0,30.02,NW,316,12.0,16.0,50,0.00,,,0.00,weatherlink.com 1.10,2013-02-14 19:58:00,
2013-02-14 14:13:00,43.7,25.0,30.02,NW,319,7.0,17.0,49,0.00,,,0.00,weatherlink.com 1.10,2013-02-14 20:13:00,
2013-02-14 14:28:00,43.6,25.0,30.02,WNW,303,11.0,16.0,48,0.00,,,0.00,weatherlink.com 1.10,2013-02-14 20:28:00,
2013-02-14 14:43:00,43.2,24.0,30.03,West,280,9.0,20.0,47,0.00,,,0.00,weatherlink.com 1.10,2013-02-14 20:43:00,
2013-02-14 14:58:00,44.3,25.0,30.03,NW,325,7.0,17.0,46,0.00,,,0.00,weatherlink.com 1.10,2013-02-14 20:58:00,
2013-02-14 15:14:00,42.7,24.0,30.04,WNW,293,9.0,19.0,48,0.00,,,0.00,weatherlink.com 1.10,2013-02-14 21:14:00,
2013-02-14 15:28:00,42.3,25.0,30.05,North,359,10.0,14.0,50,0.00,,,0.00,weatherlink.com 1.10,2013-02-14 21:28:00,
2013-02-14 15:43:00,42.4,25.0,30.05,WNW,295,7.0,12.0,51,0.00,,,0.00,weatherlink.com 1.10,2013-02-14 21:43:00,
2013-02-14 15:59:00,41.9,25.0,30.05,NNW,344,4.0,12.0,51,0.00,,,0.00,weatherlink.com 1.10,2013-02-14 21:59:00,
2013-02-14 16:13:00,41.3,26.0,30.06,NNW,328,7.0,13.0,54,0.00,,,0.00,weatherlink.com 1.10,2013-02-14 22:13:00,
2013-02-14 16:28:00,40.9,26.0,30.06,WNW,290,4.0,14.0,56,0.00,,,0.00,weatherlink.com 1.10,2013-02-14 22:28:00,
2013-02-14 16:43:00,40.9,26.0,30.07,NNW,335,4.0,8.0,56,0.00,,,0.00,weatherlink.com 1.10,2013-02-14 22:43:00,
2013-02-14 16:59:00,40.3,27.0,30.07,WNW,302,10.0,16.0,59,0.00,,,0.00,weatherlink.com 1.10,2013-02-14 22:59:00,
2013-02-14 17:13:00,39.6,27.0,30.08,West,267,7.0,10.0,61,0.00,,,0.00,weatherlink.com 1.10,2013-02-14 23:13:00,
2013-02-14 17:29:00,38.8,28.0,30.09,NW,305,5.0,12.0,65,0.00,,,0.00,weatherlink.com 1.10,2013-02-14 23:29:00,
2013-02-14 17:44:00,38.0,28.0,30.09,NNW,330,4.0,9.0,67,0.00,,,0.00,weatherlink.com 1.10,2013-02-14 23:44:00,
2013-02-14 18:15:00,36.6,29.0,30.10,NW,316,6.0,17.0,74,0.00,,,0.00,weatherlink.com 1.10,2013-02-15 00:15:00,
2013-02-14 18:29:00,35.9,30.0,30.11,NNW,343,4.0,8.0,78,0.00,,,0.00,weatherlink.com 1.10,2013-02-15 00:29:00,
2013-02-14 18:44:00,34.8,30.0,30.12,NW,319,3.0,12.0,83,0.00,,,0.00,weatherlink.com 1.10,2013-02-15 00:44:00,
2013-02-14 18:59:00,34.0,30.0,30.12,NNW,331,2.0,7.0,86,0.00,,,0.00,weatherlink.com 1.10,2013-02-15 00:59:00,
2013-02-14 19:14:00,34.0,31.0,30.13,WNW,290,5.0,8.0,88,0.00,,,0.00,weatherlink.com 1.10,2013-02-15 01:14:00,
2013-02-14 19:29:00,33.4,31.0,30.13,NW,304,2.0,7.0,91,0.00,,,0.00,weatherlink.com 1.10,2013-02-15 01:29:00,
2013-02-14 19:44:00,33.3,31.0,30.13,WNW,297,2.0,6.0,92,0.00,,,0.00,weatherlink.com 1.10,2013-02-15 01:44:00,
2013-02-14 19:59:00,33.4,31.0,30.14,NW,315,2.0,6.0,92,0.00,,,0.00,weatherlink.com 1.10,2013-02-15 01:59:00,
2013-02-14 20:29:00,30.9,28.0,30.17,North,349,11.0,21.0,89,0.00,,,0.00,weatherlink.com 1.10,2013-02-15 02:29:00,
2013-02-14 20:45:00,30.1,26.0,30.18,NNW,337,9.0,21.0,85,0.00,,,0.00,weatherlink.com 1.10,2013-02-15 02:45:00,
2013-02-14 20:59:00,29.9,23.0,30.19,North,352,13.0,21.0,76,0.00,,,0.00,weatherlink.com 1.10,2013-02-15 02:59:00,
2013-02-14 21:14:00,29.8,23.0,30.21,NNW,337,16.0,20.0,77,0.00,,,0.00,weatherlink.com 1.10,2013-02-15 03:14:00,
2013-02-14 21:29:00,29.2,21.0,30.22,NNW,340,6.0,23.0,70,0.00,,,0.00,weatherlink.com 1.10,2013-02-15 03:29:00,
2013-02-14 21:44:00,28.6,17.0,30.23,NNW,328,8.0,21.0,62,0.00,,,0.00,weatherlink.com 1.10,2013-02-15 03:44:00,
2013-02-14 21:59:00,28.2,16.0,30.24,North,355,12.0,19.0,61,0.00,,,0.00,weatherlink.com 1.10,2013-02-15 03:59:00,
2013-02-14 22:15:00,28.0,15.0,30.25,NW,319,7.0,19.0,59,0.00,,,0.00,weatherlink.com 1.10,2013-02-15 04:15:00,
2013-02-14 22:30:00,27.7,16.0,30.26,NW,316,6.0,16.0,63,0.00,,,0.00,weatherlink.com 1.10,2013-02-15 04:30:00,
2013-02-14 22:45:00,26.9,18.0,30.26,NW,319,12.0,20.0,70,0.00,,,0.00,weatherlink.com 1.10,2013-02-15 04:45:00,
2013-02-14 23:00:00,25.9,17.0,30.27,WNW,302,13.0,21.0,68,0.00,,,0.00,weatherlink.com 1.10,2013-02-15 05:00:00,
2013-02-14 23:15:00,25.3,17.0,30.28,NW,310,7.0,15.0,70,0.00,,,0.00,weatherlink.com 1.10,2013-02-15 05:15:00,
2013-02-14 23:30:00,24.3,19.0,30.28,NW,316,7.0,14.0,79,0.00,,,0.00,weatherlink.com 1.10,2013-02-15 05:30:00,
2013-02-14 23:45:00,23.3,18.0,30.29,WNW,300,7.0,18.0,79,0.00,,,0.00,weatherlink.com 1.10,2013-02-15 05:45:00,